Date,TemperatureHighF,TemperatureAvgF,TemperatureLowF,DewpointHighF,DewpointAvgF,DewpointLowF,HumidityHigh,HumidityAvg,HumidityLow,PressureMaxIn,PressureMinIn,WindSpeedMaxMPH,WindSpeedAvgMPH,GustSpeedMaxMPH,PrecipitationSumIn
2013-1-1,49,47,46,44,37,28,95,70,48,30.00,29.83,8,4,10,0.21
2013-1-2,45,40,37,44,36,31,95,85,68,30.12,29.87,9,3,10,0.37
2013-1-3,42,36,28,33,26,20,88,66,45,30.16,30.08,7,2,11,0.00
2013-1-4,50,38,28,30,27,25,92,67,40,30.17,30.04,9,4,15,0.00
2013-1-5,52,39,30,32,27,22,78,63,40,30.29,30.12,7,2,10,0.00
2013-1-6,50,44,39,38,36,32,89,75,60,30.18,29.97,7,3,11,0.03
2013-1-7,50,41,32,37,31,26,92,72,42,30.37,30.05,13,3,16,0.00
2013-1-8,60,43,29,47,38,28,95,82,56,30.39,30.28,5,1,9,0.00
2013-1-9,72,55,38,52,46,37,97,75,44,30.34,30.22,9,3,13,0.00
2013-1-10,57,50,37,49,36,28,92,63,36,30.48,30.28,12,4,17,0.00
2013-1-11,60,51,36,59,47,33,96,88,76,30.42,30.03,5,2,10,0.02
2013-1-12,60,56,51,59,55,50,100,94,85,30.08,30.02,8,2,13,0.00
2013-1-13,67,55,46,61,54,45,100,94,77,30.08,29.98,6,2,9,0.01
2013-1-14,72,62,48,60,57,45,96,86,64,30.11,30.00,14,5,20,0.01
2013-1-15,49,46,44,48,45,42,99,95,87,30.16,30.01,13,6,21,0.18
2013-1-16,51,47,43,51,46,43,100,98,98,30.00,29.88,6,2,9,0.07
2013-1-17,48,44,35,48,43,33,98,96,92,30.00,29.86,17,8,21,1.13
2013-1-18,45,37,29,36,30,22,96,79,40,30.46,29.94,13,4,18,0.08
2013-1-19,57,41,26,39,31,23,95,71,35,30.43,30.04,10,3,15,0.00
2013-1-20,65,52,44,39,35,29,80,55,29,30.04,29.82,16,7,21,0.00
2013-1-21,59,48,34,39,32,22,82,55,36,30.00,29.73,10,4,19,0.00
2013-1-22,46,34,25,30,12,0,69,42,23,30.18,29.81,11,5,19,0.00
2013-1-23,38,29,22,15,8,0,64,41,22,30.28,30.03,9,3,16,0.00
2013-1-24,35,30,24,25,13,1,75,51,34,30.43,29.86,16,7,24,0.00
2013-1-25,30,26,20,24,15,5,90,66,43,30.43,30.00,5,2,10,0.00
2013-1-26,36,28,22,28,24,19,92,86,70,30.33,30.00,7,2,7,0.24
2013-1-27,40,33,27,28,21,17,92,64,43,30.51,30.34,9,2,13,0.04
2013-1-28,50,39,27,43,33,22,90,79,66,30.45,30.08,10,4,13,0.03
2013-1-29,76,58,48,55,49,43,93,76,47,30.08,29.99,10,4,14,0.00
2013-1-30,74,66,56,62,59,52,95,78,59,30.01,29.42,24,13,31,0.00
2013-1-31,69,53,38,62,35,20,89,52,27,29.91,29.25,27,14,39,0.23
2013-2-1,45,36,26,29,15,3,77,44,23,30.28,29.77,19,8,28,0.00
2013-2-2,42,32,22,24,12,4,68,46,24,30.32,29.94,8,2,15,0.00
2013-2-3,46,39,34,34,29,24,93,68,47,29.93,29.74,8,3,12,0.03
2013-2-4,48,38,28,28,22,16,74,53,31,30.05,29.85,8,3,13,0.00
2013-2-5,60,47,40,37,32,28,81,58,36,29.92,29.76,10,5,15,0.00
2013-2-6,55,45,37,38,34,32,90,68,47,30.24,29.85,9,3,13,0.00
2013-2-7,49,44,36,42,36,29,91,73,61,30.30,30.00,13,6,17,0.08
2013-2-8,53,47,43,46,42,31,96,86,63,30.00,29.52,24,12,33,2.16
2013-2-9,49,41,34,30,25,20,72,54,35,30.28,29.81,14,7,24,0.00
2013-2-10,50,39,28,38,27,20,84,64,38,30.41,30.23,6,2,8,0.00
2013-2-11,63,56,43,60,53,38,96,88,79,30.22,29.74,13,7,20,0.15
2013-2-12,65,55,47,55,38,27,81,55,26,29.93,29.74,12,5,19,0.00
2013-2-13,51,48,46,47,44,40,97,89,72,29.88,29.50,7,2,10,0.12
2013-2-14,49,43,36,45,36,33,96,77,56,30.00,29.63,11,3,14,0.00
2013-2-15,63,45,34,44,35,29,97,73,29,30.00,29.85,7,2,10,0.00
2013-2-16,45,39,33,36,34,31,95,83,64,29.86,29.66,12,7,17,0.21
2013-2-17,36,31,27,31,18,8,93,58,38,30.13,29.68,16,8,26,0.23
2013-2-18,48,35,20,26,13,8,68,43,21,30.32,30.13,8,4,13,0.01
2013-2-19,60,49,33,53,40,25,88,74,59,30.20,29.71,14,7,21,0.04
2013-2-20,53,43,35,41,24,14,81,50,23,30.03,29.79,14,6,20,0.00
2013-2-21,45,37,26,24,20,18,76,51,35,30.20,30.03,9,4,14,0.00
2013-2-22,45,40,36,42,30,20,96,70,51,30.26,30.06,12,4,17,0.07
2013-2-23,49,46,43,48,45,42,98,96,94,30.05,29.72,7,3,12,0.62
2013-2-24,57,46,40,47,42,28,97,85,58,29.97,29.68,16,4,21,0.16
2013-2-25,43,38,32,30,26,22,85,63,49,30.14,29.97,13,4,16,0.00
2013-2-26,64,48,32,63,45,28,98,90,77,30.09,29.46,16,6,28,1.16
2013-2-27,64,54,43,63,45,38,98,74,42,29.63,29.46,12,6,16,0.00
2013-2-28,54,46,39,40,34,26,88,63,37,29.68,29.56,13,5,19,0.00
2013-3-1,53,42,34,32,28,26,77,59,42,29.78,29.68,9,4,14,0.00
2013-3-2,44,41,39,28,27,25,64,57,50,29.80,29.73,7,4,12,0.00
2013-3-5,47,42,32,29,25,22,75,53,38,30.02,29.97,5,2,0,0.16
2013-3-6,49,42,37,48,39,33,99,89,72,29.75,29.22,19,12,0,0.84
2013-3-7,53,44,41,34,30,27,77,59,39,30.03,29.75,17,10,29,0.00
2013-3-8,50,44,38,31,28,23,67,54,44,30.09,29.97,17,10,25,0.00
2013-3-9,58,46,35,31,27,18,78,50,22,30.22,30.08,14,6,24,0.00
2013-3-10,60,44,30,44,34,20,95,71,27,30.25,30.19,7,2,14,0.00
2013-3-11,66,52,35,53,45,34,98,80,59,30.20,29.94,9,3,18,0.00
2013-3-12,69,60,51,62,55,42,95,84,70,29.94,29.64,14,7,32,0.59
2013-3-13,59,50,40,42,31,24,77,51,27,29.94,29.80,12,6,27,0.00
2013-3-14,53,43,33,27,20,15,59,40,25,30.07,29.94,12,6,27,0.00
2013-3-15,60,47,30,33,25,16,83,47,22,30.05,29.78,15,5,28,0.00
2013-3-16,76,58,48,53,44,33,95,62,37,29.80,29.53,17,5,32,0.16
2013-3-17,54,43,39,53,39,33,96,86,79,30.15,29.71,13,8,20,0.00
2013-3-18,51,44,38,49,42,33,97,93,77,30.15,29.80,11,6,19,0.10
2013-3-19,67,52,43,49,40,14,98,71,20,29.85,29.68,11,4,25,0.06
2013-3-20,56,48,38,32,17,6,77,32,17,29.98,29.72,10,4,26,0.00
2013-3-21,41,37,33,32,28,12,91,69,39,29.82,29.59,17,6,31,0.00
2013-3-22,54,40,27,26,16,9,68,40,20,29.94,29.82,12,5,27,0.00
2013-3-23,58,42,30,35,27,21,85,61,24,29.95,29.82,8,2,14,0.00
2013-3-24,44,39,34,39,36,32,96,88,68,29.90,29.49,17,7,29,0.68
2013-3-25,50,41,37,40,35,30,96,79,55,29.63,29.35,17,8,33,0.05
2013-3-26,52,43,33,34,31,27,80,62,44,29.91,29.63,11,5,21,0.00
2013-3-27,54,45,36,31,27,22,74,52,31,30.05,29.91,12,5,23,0.00
2013-3-28,56,45,34,30,27,24,71,50,33,30.14,30.00,12,6,25,0.00
2013-3-29,59,47,35,35,30,27,75,55,32,30.19,30.08,10,3,22,0.00
2013-3-30,64,50,38,42,35,27,94,61,24,30.13,30.04,7,2,17,0.00
2013-3-31,68,55,44,56,46,32,94,73,55,30.07,29.70,8,2,21,0.24
2013-4-1,74,62,51,55,47,37,95,64,26,29.86,29.66,12,5,26,0.01
2013-4-2,61,49,40,38,30,19,85,50,21,30.05,29.86,10,4,19,0.00
2013-4-3,58,46,38,36,29,19,88,54,25,30.26,30.03,8,3,14,0.00
2013-4-4,51,44,37,42,30,21,95,61,40,30.31,29.89,11,4,20,0.43
2013-4-5,61,50,43,46,42,34,100,78,39,29.90,29.68,15,7,28,0.41
2013-4-6,52,46,38,40,34,25,91,65,36,30.25,29.90,13,5,22,0.00
2013-4-7,70,54,38,50,41,35,97,65,29,30.24,30.03,11,4,15,0.00
2013-4-8,80,67,55,57,53,49,86,64,35,30.06,29.95,13,7,19,0.00
2013-4-9,88,74,62,61,57,52,84,59,31,30.06,29.94,12,6,15,0.00
2013-4-10,92,77,64,62,58,55,78,55,31,29.97,29.82,12,7,16,0.00
2013-4-11,85,73,64,63,58,55,82,61,38,29.88,29.73,14,9,20,0.00
2013-4-12,78,71,68,70,66,63,93,83,71,29.75,29.54,14,9,21,0.37
2013-4-13,70,60,53,67,48,41,89,65,41,29.90,29.58,19,7,26,0.00
2013-4-14,75,61,50,51,45,34,92,60,27,30.07,29.90,8,3,11,0.00
2013-4-15,67,61,57,57,53,46,81,73,64,30.17,30.02,11,5,17,0.00
2013-4-16,72,65,60,58,56,53,87,73,60,30.23,30.14,9,4,14,0.00
2013-4-17,85,70,57,62,59,55,96,72,43,30.15,30.02,10,3,15,0.00
2013-4-18,78,69,61,62,60,58,96,74,52,30.16,30.00,10,3,17,0.00
2013-4-19,82,72,63,68,65,60,94,79,54,30.00,29.70,18,9,31,0.36
2013-4-20,66,58,50,65,48,33,95,74,38,30.19,29.72,14,4,19,0.38
2013-4-21,54,49,44,47,37,31,95,66,44,30.46,30.19,17,8,28,0.00
2013-4-22,54,49,43,49,44,33,95,83,67,30.43,30.18,17,11,23,0.19
2013-4-23,57,51,45,50,48,43,98,87,71,30.18,30.05,14,8,23,0.03
2013-4-24,75,60,42,58,52,40,98,78,50,30.08,29.86,12,6,23,0.00
2013-4-25,65,58,46,58,46,34,89,67,37,30.23,29.92,16,6,22,0.00
2013-4-26,68,55,41,50,41,33,96,66,29,30.33,30.20,9,2,15,0.00
2013-4-27,70,56,44,49,41,36,95,62,31,30.32,30.23,7,2,11,0.00
2013-4-28,67,57,44,57,47,41,95,72,47,30.23,30.05,9,2,16,0.04
2013-4-29,66,61,58,63,59,57,97,95,88,30.06,29.91,5,2,10,1.29
2013-4-30,68,60,58,60,58,57,98,91,68,30.06,29.94,11,5,16,0.01
2013-5-1,62,58,55,58,55,52,98,91,78,30.26,30.06,17,10,24,0.12
2013-5-2,66,58,52,54,51,48,93,79,62,30.28,30.20,14,8,21,0.00
2013-5-3,63,56,51,55,49,40,97,80,44,30.23,30.14,16,9,23,0.00
2013-5-4,61,55,50,52,49,46,95,81,70,30.12,30.06,16,11,22,0.01
2013-5-5,59,54,49,52,50,47,92,85,75,30.06,30.00,14,9,21,0.00
2013-5-6,73,63,55,62,58,52,97,83,60,30.01,29.87,12,7,18,0.03
2013-5-7,76,65,57,64,59,53,97,80,55,29.89,29.77,9,4,13,0.33
2013-5-8,75,62,53,62,56,51,97,83,45,29.94,29.85,8,2,12,0.36
2013-5-9,80,68,58,60,57,51,97,73,38,29.96,29.86,9,3,14,0.00
2013-5-10,88,73,58,62,58,54,95,63,33,29.97,29.88,10,4,13,0.00
2013-5-11,83,74,66,70,64,60,98,74,51,29.89,29.69,14,7,18,2.27
2013-5-12,74,66,57,67,59,50,98,79,48,29.92,29.66,9,3,13,0.11
2013-5-13,68,59,52,54,40,32,89,51,28,30.05,29.92,7,2,12,0.00
2013-5-14,68,57,45,49,39,28,81,55,24,30.14,30.03,7,2,14,0.00
2013-5-15,86,72,58,61,54,46,72,55,40,30.03,29.74,13,7,23,0.00
2013-5-16,91,79,69,63,59,52,74,53,27,29.83,29.74,11,6,15,0.00
2013-5-17,81,72,62,62,54,42,84,58,26,30.07,29.83,8,3,12,0.00
2013-5-18,73,67,59,68,62,55,96,84,73,30.14,30.04,10,4,15,0.62
2013-5-19,84,73,68,70,68,65,98,84,56,30.09,30.02,7,2,12,0.61
2013-5-20,82,72,68,72,68,66,95,85,61,30.06,29.96,14,3,18,0.66
2013-5-21,84,74,68,71,68,66,96,84,60,29.97,29.86,10,4,19,0.54
2013-5-22,85,76,68,70,67,65,93,76,54,29.94,29.85,13,7,20,0.00
2013-5-23,77,73,70,72,69,66,96,88,75,29.92,29.73,11,4,17,0.73
2013-5-24,77,64,54,68,58,40,95,79,55,30.03,29.68,13,5,20,0.34
2013-5-25,69,58,47,47,39,32,82,52,27,30.11,30.02,12,6,23,0.00
2013-5-26,74,62,48,54,44,34,90,58,25,30.16,30.06,7,3,13,0.00
2013-5-27,80,66,51,58,51,44,97,62,30,30.20,30.10,8,2,13,0.00
2013-5-28,84,73,62,64,60,56,89,66,44,30.17,30.06,11,5,22,0.00
2013-5-29,88,77,66,66,64,62,90,67,45,30.14,30.07,11,6,19,0.00
2013-5-30,89,78,66,69,64,60,90,65,39,30.18,30.08,8,4,12,0.00
2013-5-31,90,79,69,70,67,62,94,69,42,30.15,30.01,9,5,14,0.00
2013-6-1,90,80,70,71,68,64,91,69,43,30.05,29.93,10,6,16,0.00
2013-6-2,88,79,70,68,66,61,87,64,43,29.96,29.82,12,7,19,0.00
2013-6-3,78,75,71,72,69,65,93,84,70,29.86,29.75,11,5,17,0.01
2013-6-4,76,71,61,69,60,49,95,71,41,30.05,29.83,13,4,18,0.00
2013-6-5,76,67,56,62,54,44,97,68,35,30.08,30.01,7,2,12,0.00
2013-6-6,79,70,59,69,63,57,98,80,54,30.01,29.79,9,3,13,0.01
2013-6-7,84,75,71,76,72,68,97,89,69,29.79,29.38,19,7,26,0.61
2013-6-8,85,75,69,76,70,67,94,83,66,30.01,29.69,10,4,15,0.08
2013-6-9,83,75,67,74,70,66,97,85,61,30.09,30.00,7,2,13,0.00
2013-6-10,85,76,72,76,71,68,96,85,68,30.03,29.83,11,5,21,1.59
2013-6-11,85,77,71,70,68,63,95,75,50,29.85,29.74,12,7,18,0.10
2013-6-12,91,80,68,73,68,64,92,67,41,29.85,29.74,10,3,12,0.00
2013-6-13,96,82,70,75,71,63,90,72,42,29.75,29.43,15,6,27,0.16
2013-6-14,74,70,66,67,60,51,91,72,53,29.84,29.54,13,7,24,0.00
2013-6-15,86,77,60,68,62,54,93,62,35,30.00,29.93,7,3,13,0.00
2013-6-16,88,78,67,66,62,56,93,60,43,30.00,29.88,13,7,22,0.00
2013-6-17,87,76,71,73,67,64,92,75,56,29.94,29.86,11,5,17,0.22
2013-6-18,84,76,71,76,71,68,96,84,68,29.88,29.67,8,4,12,0.39
2013-6-19,75,70,64,70,65,62,96,84,69,30.06,29.70,10,5,15,0.00
2013-6-20,76,68,61,63,58,48,96,73,39,30.17,30.06,11,5,15,0.00
2013-6-21,77,69,63,69,65,60,95,88,74,30.18,30.14,9,4,13,0.15
2013-6-22,84,73,65,73,68,62,96,85,68,30.15,30.08,8,3,13,0.05
2013-6-23,89,79,72,75,72,69,97,80,55,30.12,30.03,12,4,19,0.00
2013-6-24,88,80,73,74,72,70,94,78,60,30.11,29.99,9,5,13,0.00
2013-6-25,92,82,72,74,71,67,92,72,50,30.01,29.86,10,6,17,0.00
2013-6-26,92,82,72,74,70,66,92,70,52,29.91,29.77,13,7,28,0.00
2013-6-27,92,79,70,74,70,67,93,75,52,29.80,29.62,14,6,21,0.00
2013-6-28,93,83,74,75,72,68,89,71,47,29.63,29.47,11,7,18,0.06
2013-6-29,87,77,70,74,71,67,95,84,64,29.67,29.49,12,4,14,0.16
2013-6-30,81,78,75,76,73,72,94,85,73,29.82,29.67,9,5,16,0.04
2013-7-1,82,77,74,76,74,71,95,88,76,29.97,29.81,12,5,23,0.52
2013-7-2,88,77,73,76,73,71,97,87,59,30.14,29.97,9,3,13,0.65
2013-7-3,88,79,73,78,74,72,98,87,64,30.19,30.12,9,2,15,0.24
2013-7-4,89,81,74,77,72,68,97,77,55,30.23,30.14,7,3,12,0.00
2013-7-5,91,82,73,75,73,70,96,75,51,30.20,30.09,7,3,10,0.00
2013-7-6,90,86,78,73,70,68,77,59,49,30.14,30.04,7,4,11,0.00
2013-7-7,91,82,73,73,71,68,92,72,49,30.10,29.97,9,5,14,0.00
2013-7-8,86,80,75,75,73,70,90,78,65,30.07,30.00,11,5,17,0.00
2013-7-9,88,80,75,75,73,69,95,79,62,30.08,29.98,11,4,15,0.00
2013-7-10,88,81,75,78,73,69,92,79,64,30.02,29.86,11,5,21,0.05
2013-7-11,89,77,72,75,72,70,98,87,60,29.89,29.82,14,4,15,2.49
2013-7-12,81,76,72,74,73,72,98,92,73,29.94,29.79,5,1,10,0.21
2013-7-13,87,79,72,76,74,71,98,85,65,30.17,29.94,11,3,18,0.29
2013-7-14,87,80,75,78,74,72,98,83,63,30.23,30.16,6,2,9,0.00
2013-7-15,91,81,72,77,73,67,98,80,46,30.23,30.14,4,1,7,0.00
2013-7-16,97,85,76,77,74,70,89,71,46,30.15,30.05,6,3,11,0.00
2013-7-17,93,84,75,77,74,70,95,74,47,30.11,30.02,7,2,10,0.00
2013-7-18,95,83,72,76,73,68,96,73,41,30.05,29.95,4,1,12,0.00
2013-7-19,93,84,76,77,74,72,90,72,54,29.99,29.88,11,5,20,0.00
2013-7-20,90,83,76,76,73,72,90,73,58,29.91,29.81,12,7,21,0.00
2013-7-21,90,83,75,76,73,70,89,73,57,29.88,29.79,10,5,14,0.00
2013-7-22,91,81,77,77,75,72,93,82,57,29.85,29.72,10,2,13,0.05
2013-7-23,91,82,76,76,73,71,93,76,55,29.73,29.60,11,6,16,0.01
2013-7-24,94,83,75,75,73,68,92,74,44,29.74,29.61,7,2,11,0.00
2013-7-25,80,74,70,74,69,67,93,84,72,29.92,29.72,12,6,17,0.02
2013-7-26,86,75,66,69,65,58,96,75,39,30.00,29.91,6,2,10,0.01
2013-7-27,87,75,65,70,64,59,98,73,47,30.00,29.88,7,1,9,0.00
2013-7-28,88,78,70,74,71,67,96,80,54,29.91,29.84,9,2,14,0.04
2013-7-29,86,78,72,75,71,65,95,79,53,30.07,29.91,9,3,15,0.00
2013-7-30,85,77,68,70,63,56,97,67,38,30.13,30.05,5,1,9,0.00
2013-7-31,83,75,69,71,66,59,96,75,45,30.07,29.96,6,2,10,0.00
2013-8-1,83,75,68,73,70,65,97,84,70,29.96,29.77,9,3,20,1.20
2013-8-2,89,78,68,75,71,66,97,80,53,29.91,29.78,7,2,9,0.01
2013-8-3,90,78,72,76,73,69,96,85,56,29.92,29.82,8,3,14,0.27
2013-8-4,83,75,68,74,66,56,98,77,43,29.93,29.77,11,3,17,0.00
2013-8-5,82,73,63,66,62,60,95,72,49,30.00,29.92,5,1,7,0.00
2013-8-6,71,69,67,67,65,61,96,87,76,30.03,29.93,7,2,11,0.26
2013-8-7,87,77,70,72,70,67,96,80,57,30.03,29.97,7,2,12,0.00
2013-8-8,87,78,72,76,73,70,95,83,59,30.00,29.94,7,2,11,0.12
2013-8-9,92,84,76,77,75,74,95,77,60,29.94,29.85,11,6,23,0.00
2013-8-10,94,82,75,78,75,72,96,82,57,30.00,29.88,10,4,15,0.70
2013-8-11,86,78,73,77,74,69,97,89,71,30.01,29.92,13,2,16,0.86
2013-8-12,89,80,73,78,75,72,97,86,68,29.95,29.84,7,2,7,0.00
2013-8-13,92,81,75,78,75,72,97,83,57,29.84,29.68,10,4,18,0.20
2013-8-14,76,73,64,74,62,51,96,69,41,29.99,29.67,13,5,21,0.00
2013-8-15,76,68,62,61,59,56,92,75,55,30.06,29.97,9,2,12,0.00
2013-8-16,74,71,64,68,60,57,95,70,58,30.08,30.00,9,3,14,0.10
2013-8-17,75,72,69,72,70,67,97,93,82,30.11,30.03,10,6,15,0.82
2013-8-18,84,75,70,75,60,-100,98,82,68,30.11,29.98,8,4,14,0.51
2013-8-19,76,72,68,71,68,65,95,88,78,30.10,30.00,4,1,6,0.04
2013-8-20,82,75,68,72,70,67,98,86,67,30.09,30.01,4,0,5,0.01
2013-8-21,87,76,69,75,71,68,98,85,61,30.14,30.03,5,1,7,0.00
2013-8-22,91,80,73,74,72,70,96,78,53,30.04,29.88,9,3,12,0.00
2013-8-23,90,77,70,74,71,67,96,83,54,29.96,29.84,10,3,15,0.46
2013-8-24,79,73,66,68,64,60,92,76,58,30.22,29.96,13,6,18,0.00
2013-8-25,77,69,61,63,60,56,93,74,52,30.30,30.20,10,4,15,0.00
2013-8-26,85,70,57,61,57,48,97,68,28,30.23,30.00,5,1,9,0.00
2013-8-27,91,77,65,72,64,55,79,66,47,30.01,29.83,8,3,11,0.00
2013-8-28,86,79,73,76,73,70,93,82,66,29.86,29.75,6,2,9,0.20
2013-8-29,82,75,70,74,71,65,97,86,70,29.92,29.70,14,5,19,0.23
2013-8-30,85,74,67,72,68,65,97,81,59,29.97,29.88,5,1,9,0.00
2013-8-31,90,78,67,74,70,66,98,79,49,29.89,29.77,10,3,14,0.00
2013-9-1,91,80,73,75,73,70,96,82,57,29.82,29.72,10,4,14,0.05
2013-9-2,91,80,72,75,72,70,95,80,55,29.76,29.69,10,4,13,0.05
2013-9-3,91,76,70,76,72,64,97,88,55,29.84,29.70,13,2,19,1.00
2013-9-4,84,74,67,71,67,63,98,81,53,30.00,29.84,7,1,11,0.00
2013-9-5,91,76,65,74,68,62,98,78,40,30.00,29.91,5,1,9,0.00
2013-9-6,78,72,63,69,63,56,96,75,55,30.08,29.96,12,4,17,0.00
2013-9-7,84,69,58,62,58,56,96,71,39,30.05,29.89,5,1,8,0.00
2013-9-8,90,74,62,71,64,58,93,73,45,29.90,29.79,5,2,7,0.00
2013-9-9,84,76,70,72,70,66,97,83,60,30.08,29.90,8,2,11,0.00
2013-9-10,91,78,66,73,69,66,98,76,50,30.15,30.06,5,1,7,0.00
2013-9-11,91,79,70,72,70,67,95,75,48,30.11,29.99,7,2,10,0.00
2013-9-12,91,80,72,71,70,67,93,72,47,30.00,29.68,9,4,14,0.00
2013-9-13,84,76,70,72,67,59,93,75,55,29.77,29.60,9,3,16,0.00
2013-9-14,75,68,59,60,56,52,93,67,47,30.06,29.77,10,4,21,0.00
2013-9-15,80,67,55,61,56,53,97,73,40,30.15,30.05,4,1,8,0.00
2013-9-16,87,70,61,71,64,57,97,81,45,30.08,29.94,14,4,16,0.01
2013-9-17,72,65,59,60,55,50,84,70,56,30.25,30.08,14,6,17,0.00
2013-9-18,73,64,56,58,54,51,94,72,50,30.22,30.11,8,3,12,0.00
2013-9-19,78,64,53,60,55,51,97,74,42,30.11,30.02,6,1,9,0.00
2013-9-20,80,66,56,63,58,55,97,77,49,30.02,29.91,5,1,8,0.00
2013-9-21,84,69,56,69,63,56,98,83,53,29.92,29.66,9,2,13,0.01
2013-9-22,74,70,66,69,63,54,96,81,59,29.78,29.63,10,4,15,0.32
2013-9-23,68,62,54,57,52,48,92,70,53,29.99,29.78,11,4,17,0.00
2013-9-24,75,61,50,56,52,48,96,76,43,30.00,29.87,6,1,11,0.00
2013-9-25,76,63,52,60,55,51,98,78,47,29.88,29.78,4,1,7,0.00
2013-9-26,75,66,59,61,58,55,94,78,55,29.94,29.79,12,3,15,0.00
2013-9-27,72,65,58,60,56,51,94,74,48,30.09,29.94,15,6,20,0.00
2013-9-28,72,65,60,62,58,53,88,77,62,30.13,30.05,14,6,19,0.03
2013-9-29,73,64,57,65,59,55,95,84,61,30.06,29.94,12,4,18,0.36
2013-9-30,75,64,56,61,56,49,96,77,44,29.97,29.90,10,3,15,0.00
2013-10-1,83,67,54,63,57,53,98,74,40,30.02,29.92,5,1,7,0.00
2013-10-2,89,71,60,66,61,57,94,73,39,30.01,29.94,5,1,7,0.00
2013-10-3,87,72,59,67,63,58,98,76,42,30.03,29.97,5,1,9,0.00
2013-10-4,90,75,67,68,65,62,93,74,41,30.03,29.94,7,3,11,0.00
2013-10-5,91,76,64,69,66,63,97,75,42,30.01,29.94,6,1,7,0.00
2013-10-6,87,74,64,71,66,61,96,77,42,30.00,29.90,7,2,15,0.00
2013-10-7,86,75,66,72,69,64,97,83,54,29.91,29.75,12,4,19,1.44
2013-10-8,66,64,61,64,55,49,96,74,58,30.09,29.90,16,10,20,0.02
2013-10-9,66,64,62,65,61,55,100,92,72,30.08,29.87,16,11,27,2.72
2013-10-10,72,69,66,72,48,-100,99,86,95,29.87,29.72,16,8,25,1.20
2013-10-11,67,64,63,64,-84,-100,93,9,89,29.82,29.72,7,4,12,0.07
2013-10-12,74,67,64,70,-93,-100,93,4,84,29.96,29.80,7,2,7,0.06
2013-10-13,74,69,66,69,-19,-100,95,43,85,30.11,29.95,15,8,24,0.08
2013-10-14,70,67,62,64,61,58,89,83,73,30.13,30.08,15,9,24,0.00
2013-10-15,69,65,62,64,62,58,94,90,85,30.08,29.95,11,6,16,0.00
2013-10-16,75,68,63,65,63,59,97,85,58,29.95,29.86,7,3,11,0.00
2013-10-17,81,69,60,65,62,59,98,81,55,29.86,29.74,6,2,10,0.00
2013-10-18,71,66,57,65,56,51,91,73,53,29.94,29.75,8,3,12,0.00
2013-10-19,68,64,57,66,61,54,96,92,88,29.92,29.73,5,1,9,0.12
2013-10-20,66,58,46,65,48,39,96,72,42,30.04,29.77,10,4,16,0.00
2013-10-21,70,55,42,52,46,41,97,76,42,30.08,29.92,5,1,7,0.01
2013-10-22,66,59,53,58,54,48,94,84,71,29.93,29.73,6,1,8,0.00
2013-10-23,64,58,50,58,53,41,96,85,61,29.82,29.56,9,3,15,0.01
2013-10-24,61,50,41,41,37,31,92,64,34,30.06,29.82,9,4,15,0.00
2013-10-25,58,47,38,38,34,27,88,66,32,30.25,30.05,9,3,18,0.00
2013-10-26,63,49,36,41,36,31,91,64,30,30.24,29.96,11,3,20,0.00
2013-10-27,70,54,43,45,39,34,93,61,28,30.06,29.92,6,2,14,0.00
2013-10-28,67,54,42,54,48,42,98,82,55,30.17,30.06,6,1,13,0.00
2013-10-29,72,58,50,58,50,42,97,78,35,30.25,30.15,6,2,13,0.00
2013-10-30,74,61,51,60,54,50,97,80,53,30.23,30.09,7,1,15,0.00
2013-10-31,76,66,57,65,59,54,94,78,46,30.12,29.88,10,4,25,0.00
2013-11-1,78,72,67,68,65,62,96,79,60,29.88,29.60,14,8,30,0.54
2013-11-2,74,66,59,68,59,45,96,79,44,29.78,29.54,10,3,22,0.07
2013-11-3,63,55,45,46,40,30,78,58,48,30.27,29.78,11,5,19,0.00
2013-11-4,54,48,40,44,38,26,87,69,38,30.46,30.27,11,6,18,0.00
2013-11-5,64,56,48,52,49,45,93,80,60,30.44,30.35,10,3,14,0.00
2013-11-6,70,60,48,59,54,46,97,83,56,30.35,30.03,8,1,11,0.00
2013-11-7,68,62,52,65,58,40,98,87,59,30.03,29.77,11,3,19,0.42
2013-11-8,58,49,39,40,32,26,90,56,32,30.22,29.95,10,4,17,0.00
2013-11-9,62,48,36,42,36,28,96,69,30,30.29,30.05,7,2,12,0.00
2013-11-10,73,56,44,43,37,29,81,52,26,30.14,29.89,12,6,20,0.00
2013-11-11,61,49,41,41,36,29,90,61,41,30.25,30.03,9,2,11,0.00
2013-11-12,59,45,36,44,34,20,89,66,44,30.25,29.93,18,8,25,0.01
2013-11-13,45,38,30,27,22,16,80,54,37,30.37,30.25,15,6,24,0.00
2013-11-14,60,43,28,28,22,18,84,50,21,30.36,30.23,10,4,19,0.00
2013-11-15,65,56,39,48,38,25,79,54,28,30.27,30.14,8,2,13,0.00
2013-11-16,64,57,52,57,54,48,96,88,74,30.21,30.12,7,2,12,0.16
2013-11-17,73,60,51,66,38,-100,98,80,67,30.13,29.82,8,2,15,0.00
2013-11-18,78,67,56,67,52,30,96,64,29,29.82,29.67,11,5,18,0.12
2013-11-19,57,49,41,35,32,27,78,52,36,30.22,29.78,15,6,21,0.00
2013-11-20,52,48,43,43,37,28,73,66,55,30.37,30.21,15,8,20,0.00
2013-11-21,62,55,49,53,49,43,96,83,71,30.39,30.30,6,2,9,0.00
2013-11-22,74,61,46,60,54,46,98,80,51,30.31,29.95,12,4,19,0.01
2013-11-23,64,53,40,61,44,23,95,72,44,30.01,29.91,11,5,18,0.05
2013-11-24,44,34,29,24,9,2,55,36,25,30.44,30.00,16,9,25,0.00
2013-11-25,44,34,26,26,13,6,67,43,24,30.51,30.30,7,2,14,0.00
2013-11-26,67,50,36,64,44,26,97,81,68,30.30,29.52,16,4,21,0.55
2013-11-27,68,51,39,66,48,32,96,90,77,29.95,29.35,15,9,32,1.09
2013-11-28,44,35,28,32,22,15,86,62,34,30.42,29.95,10,3,18,0.00
2013-11-29,47,36,26,31,26,24,94,70,45,30.56,30.40,12,3,16,0.00
2013-11-30,51,42,36,39,34,26,90,75,62,30.56,30.26,9,5,14,0.00
2013-12-1,59,45,36,44,39,34,95,81,48,30.26,29.94,5,1,7,0.00
2013-12-2,56,43,33,47,38,32,98,83,51,29.94,29.74,5,1,6,0.00
2013-12-3,64,47,35,46,38,34,97,76,37,29.94,29.76,4,1,6,0.01
2013-12-4,64,54,47,58,50,39,97,86,69,30.02,29.94,5,1,7,0.06
2013-12-5,67,60,52,61,58,52,98,91,77,30.06,29.96,10,2,13,0.00
2013-12-6,80,71,54,66,63,50,86,76,55,29.98,29.88,14,8,21,0.00
2013-12-7,53,44,41,49,39,31,96,80,64,30.39,29.94,15,9,22,0.17
2013-12-8,44,40,37,43,36,28,97,86,63,30.39,30.14,12,7,18,0.50
2013-12-9,47,43,38,46,42,37,98,98,97,30.14,29.98,5,3,9,0.13
2013-12-10,47,42,35,47,40,33,98,95,88,30.20,29.82,10,4,15,0.77
2013-12-11,48,38,28,33,28,22,93,69,38,30.35,30.18,7,3,12,0.00
2013-12-12,40,34,28,30,25,21,83,69,51,30.31,30.15,14,4,20,0.00
2013-12-13,52,37,28,29,22,16,82,59,27,30.27,30.17,11,4,16,0.00
2013-12-14,61,46,33,60,41,27,97,83,60,30.25,29.60,12,3,18,1.37
2013-12-15,60,49,39,59,43,30,97,81,60,29.92,29.57,11,5,14,0.02
2013-12-16,54,40,32,36,31,27,94,72,43,30.10,29.92,8,2,10,0.00
2013-12-17,61,47,38,42,39,36,94,74,40,30.07,29.77,12,3,17,0.00
2013-12-18,50,41,32,38,31,23,88,69,36,30.19,29.85,11,4,15,0.00
2013-12-19,61,46,32,30,26,21,80,49,23,30.22,30.11,14,6,20,0.00
2013-12-20,69,57,44,56,47,30,85,69,47,30.16,30.03,12,6,18,0.00
2013-12-21,74,64,55,64,58,53,93,81,58,30.08,29.97,13,7,19,0.00
2013-12-22,81,71,63,66,64,59,93,79,58,30.03,29.95,15,8,24,0.00
2013-12-23,75,66,45,69,62,43,94,87,74,30.05,29.91,19,10,23,0.59
2013-12-24,46,41,33,43,31,10,93,69,37,30.34,30.02,14,8,20,0.48
2013-12-25,38,32,28,26,20,10,88,62,39,30.45,30.29,9,3,14,0.00
2013-12-26,46,36,29,32,28,25,93,76,48,30.29,30.14,6,2,9,0.00
2013-12-27,50,37,28,38,29,24,96,74,36,30.36,30.26,7,1,10,0.00
2013-12-28,62,43,29,37,30,24,96,64,25,30.31,30.08,9,2,13,0.00
2013-12-29,66,53,45,64,50,37,96,88,72,30.08,29.49,18,6,24,0.70
2013-12-30,57,47,40,47,41,34,97,80,56,30.05,29.80,7,2,12,0.01
2013-12-31,52,42,36,37,32,25,91,67,40,30.25,30.02,11,4,17,0.02
2014-1-1,52,41,31,40,32,28,91,74,41,30.33,30.06,7,1,9,0.00
2014-1-2,47,45,43,43,39,35,96,79,69,30.06,29.37,7,1,11,0.46